Latest Weather Observations for Inverell RS

IDN60801

Issued at 8:33 pm EST Saturday 23 July 2016 (issued every 30 minutes, with the page automatically refreshed every 10 minutes)

About weather observations | Map of weather stations | Latest weather observations for NSW | Other Formats
Station Details ID: 056018 Name: INVERELL RESEARCH CENTRE Lat: -29.78 Lon: 151.08 Height: 664.0 m
Data from the previous 72 hours. | See also: Recent months at Inverell RS
Date/Time
EST
Temp
°C
App
Temp
°C
Dew
Point
°C
Rel
Hum
%
Delta-T
°C
Wind Press
QNH
hPa
Press
MSL
hPa
Rain since
9am
mm
Dir  Spd
km/h
Gust
km/h
Spd
kts
Gust
kts
23/08:30pm 8.2 5.2 0.8 59 3.1 WNW 6 9 3 5 1015.5 - 0.0
23/08:00pm 9.0 5.4 0.4 55 3.6 WNW 9 13 5 7 1015.1 - 0.0
23/07:30pm 9.3 5.6 -0.1 52 3.9 NW 9 11 5 6 1015.0 - 0.0
23/07:00pm 9.6 6.3 0.0 51 4.0 WNW 7 11 4 6 1014.7 - 0.0
23/06:30pm 10.2 5.7 -0.4 47 4.4 NW 13 22 7 12 1014.3 - 0.0
23/06:00pm 10.4 6.5 1.1 52 4.0 NW 11 17 6 9 1013.9 1014.4 0.0
23/05:30pm 11.0 6.6 0.5 48 4.5 WNW 13 26 7 14 1013.2 - 0.0
23/05:00pm 11.6 6.8 0.1 45 4.9 WNW 15 26 8 14 1013.0 - 0.0
23/04:30pm 12.6 7.2 -1.6 37 5.9 WNW 17 28 9 15 1012.9 - 0.0
23/04:00pm 13.5 8.6 -0.8 37 6.1 WNW 15 26 8 14 1012.1 - 0.0
23/03:30pm 14.2 9.6 -1.0 35 6.5 WNW 13 26 7 14 1011.8 - 0.0
23/03:00pm 14.7 10.2 -0.5 35 6.6 W 13 26 7 14 1011.6 1012.0 0.0
23/02:30pm 13.6 8.0 0.0 39 5.9 WNW 19 33 10 18 1011.6 - 0.0
23/02:00pm 14.6 9.4 0.0 37 6.4 WNW 17 26 9 14 1011.5 - 0.0
23/01:30pm 14.6 8.8 -0.3 36 6.5 WNW 20 37 11 20 1011.4 - 0.0
23/01:00pm 15.0 9.0 1.0 38 6.3 WNW 22 35 12 19 1011.6 - 0.0
23/12:30pm 15.7 10.8 1.8 39 6.4 WNW 17 33 9 18 1011.7 - 0.0
23/12:00pm 15.6 10.6 1.6 38 6.4 W 17 33 9 18 1011.8 1012.3 0.0
23/11:30am 15.6 10.2 1.3 38 6.5 W 19 37 10 20 1012.1 - 0.0
23/11:00am 16.1 10.8 2.1 39 6.5 W 19 41 10 22 1012.2 - 0.0
23/10:30am 16.2 12.3 3.4 42 6.1 W 13 24 7 13 1012.1 - 0.0
23/10:00am 16.1 12.2 5.2 48 5.4 W 15 26 8 14 1012.1 - 0.0
23/09:30am 15.6 13.2 8.6 63 3.7 W 11 19 6 10 1011.9 - 0.0
23/09:00am 15.9 13.6 11.6 75 2.4 W 15 28 8 15 1011.6 1012.0 0.6
23/08:30am 16.1 13.9 12.2 77 2.2 NW 15 28 8 15 1011.3 - 0.6
23/08:00am 16.5 14.4 12.5 77 2.3 WNW 15 28 8 15 1011.2 - 0.6
23/07:30am 16.3 14.8 13.0 81 1.9 NW 13 28 7 15 1010.7 - 0.6
23/07:00am 16.5 15.2 13.6 83 1.7 NW 13 26 7 14 1010.5 - 0.6
23/06:30am 16.7 15.1 13.8 83 1.7 NW 15 26 8 14 1010.0 - 0.6
23/06:00am 17.2 14.7 13.4 78 2.2 NW 19 33 10 18 1009.7 1010.1 0.6
23/05:30am 17.1 15.9 13.9 81 1.9 NW 13 28 7 15 1009.4 - 0.6
23/05:00am 17.0 15.5 14.1 83 1.7 NNW 15 20 8 11 1008.9 - 0.6
23/04:30am 16.6 15.6 14.6 88 1.2 NW 13 24 7 13 1009.0 - 0.6
23/04:00am 17.1 15.8 14.9 87 1.3 NNW 15 20 8 11 1009.3 - 0.6
23/03:30am 17.4 15.6 15.4 88 1.2 NNW 19 30 10 16 1009.6 - 0.6
23/03:00am 17.4 15.6 15.6 89 1.1 NNW 19 28 10 15 1009.6 1010.0 0.6
23/02:30am 17.5 15.6 15.7 89 1.1 NNW 20 37 11 20 1009.7 - 0.6
23/02:00am 17.5 15.7 15.9 90 1.0 NNW 20 37 11 20 1010.0 - 0.6
23/01:30am 17.7 16.1 15.9 89 1.1 N 19 35 10 19 1010.2 - 0.4
23/01:00am 17.2 15.9 15.9 92 0.8 N 17 32 9 17 1010.7 - 0.4
23/12:30am 15.6 16.6 15.4 99 0.1 NW 4 7 2 4 1011.0 - 0.2
23/12:00am 15.2 15.1 15.0 99 0.1 NNW 9 11 5 6 1011.2 1011.6 0.0
 
Date/Time
EST
Temp
°C
App
Temp
°C
Dew
Point
°C
Rel
Hum
%
Delta-T
°C
Wind Press
QNH
hPa
Press
MSL
hPa
Rain since
9am
mm
Dir  Spd
km/h
Gust
km/h
Spd
kts
Gust
kts
22/11:30pm 15.4 15.0 15.2 99 0.1 NNW 11 13 6 7 1011.8 - 0.0
22/11:00pm 15.8 15.5 15.5 98 0.2 N 11 13 6 7 1012.0 - 0.0
22/10:30pm 15.8 15.8 15.3 97 0.3 NNW 9 13 5 7 1012.5 - 0.0
22/10:00pm 16.0 16.0 15.3 96 0.4 N 9 11 5 6 1012.6 - 0.0
22/09:30pm 16.3 16.4 15.6 96 0.4 NNW 9 13 5 7 1012.6 - 0.0
22/09:00pm 16.9 17.2 15.9 94 0.6 NNW 9 11 5 6 1012.8 1013.2 0.0
22/08:30pm 17.2 17.5 16.1 93 0.7 NNW 9 11 5 6 1012.6 - 0.0
22/08:00pm 17.4 17.0 16.1 92 0.8 N 13 17 7 9 1012.6 - 0.0
22/07:30pm 17.6 17.5 16.0 90 1.0 N 11 13 6 7 1012.7 - 0.0
22/07:00pm 17.7 17.6 16.1 90 1.0 NNW 11 13 6 7 1012.6 - 0.0
22/06:30pm 17.7 17.6 15.9 89 1.1 NNW 11 15 6 8 1012.6 - 0.0
22/06:00pm 18.1 18.0 16.0 87 1.3 NNW 11 15 6 8 1012.6 1013.0 0.0
22/05:30pm 18.4 18.3 16.1 86 1.4 NNW 11 15 6 8 1012.5 - 0.0
22/05:00pm 18.7 18.6 16.1 85 1.6 NNW 11 17 6 9 1012.5 - 0.0
22/04:30pm 19.1 18.5 15.7 80 2.1 NNW 13 19 7 10 1012.6 - 0.0
22/04:00pm 19.3 19.6 16.0 81 2.0 NNW 9 15 5 8 1012.7 - 0.0
22/03:30pm 19.3 19.6 15.9 81 2.1 NNW 9 15 5 8 1012.9 - 0.0
22/03:00pm 19.1 18.6 16.0 82 1.9 NNW 13 17 7 9 1013.0 1013.5 0.0
22/02:30pm 18.9 17.9 15.6 81 2.0 NNW 15 26 8 14 1013.3 - 0.0
22/02:00pm 18.6 17.8 16.0 85 1.6 N 15 28 8 15 1013.7 - 0.0
22/01:30pm 18.2 17.4 16.1 87 1.3 N 15 20 8 11 1014.1 - 0.0
22/01:00pm 17.1 16.7 16.1 94 0.6 NNW 13 19 7 10 1014.5 - 0.0
22/12:30pm 17.2 16.4 16.1 93 0.7 NNW 15 22 8 12 1014.9 - 0.0
22/12:00pm 16.7 17.1 16.2 97 0.3 N 9 11 5 6 1015.4 1015.9 0.0
22/11:30am 16.4 16.7 16.1 98 0.2 N 9 13 5 7 1016.1 - 0.0
22/11:00am 16.1 16.4 15.9 99 0.1 N 9 11 5 6 1016.5 - 0.0
22/10:30am 15.8 15.9 15.6 99 0.1 N 9 13 5 7 1016.9 - 0.0
22/10:00am 15.1 15.4 15.1 100 0.0 N 7 11 4 6 1017.2 - 0.0
22/09:30am 14.9 14.7 14.7 99 0.1 N 9 13 5 7 1017.6 - 0.0
22/09:00am 14.5 14.6 14.5 100 0.0 N 7 15 4 8 1017.6 1017.7 4.2
22/08:30am 14.6 13.5 14.4 99 0.1 NNW 13 15 7 8 1017.5 - 4.2
22/08:00am 14.4 13.7 14.4 100 0.0 N 11 15 6 8 1017.5 - 4.2
22/07:30am 14.4 13.7 14.4 100 0.0 NNW 11 13 6 7 1017.2 - 4.2
22/07:00am 14.4 14.5 14.4 100 0.0 N 7 11 4 6 1017.4 - 4.2
22/06:30am 14.4 14.5 14.4 100 0.0 NNW 7 7 4 4 1017.4 - 4.2
22/06:00am 14.5 14.6 14.5 100 0.0 N 7 11 4 6 1017.1 1017.7 4.2
22/05:30am 14.5 15.9 14.5 100 0.0 CALM 0 0 0 0 1017.0 - 4.2
22/05:00am 14.5 15.9 14.5 100 0.0 CALM 0 9 0 5 1016.9 - 4.0
22/04:30am 14.5 15.9 14.5 100 0.0 CALM 0 0 0 0 1016.9 - 4.0
22/04:00am 14.4 14.7 14.4 100 0.0 NNW 6 7 3 4 1016.8 - 4.0
22/03:30am 14.4 15.4 14.4 100 0.0 NNW 2 7 1 4 1017.1 - 4.0
22/03:00am 14.4 15.1 14.4 100 0.0 NW 4 7 2 4 1017.5 1018.0 4.0
22/02:30am 14.4 14.1 14.4 100 0.0 N 9 11 5 6 1017.8 - 4.0
22/02:00am 14.4 14.5 14.4 100 0.0 NNW 7 9 4 5 1018.1 - 4.0
22/01:30am 14.7 16.2 14.7 100 0.0 CALM 0 0 0 0 1018.3 - 4.0
22/01:00am 14.7 16.2 14.7 100 0.0 CALM 0 0 0 0 1018.6 - 4.0
22/12:30am 14.8 15.6 14.8 100 0.0 N 4 7 2 4 1018.5 - 4.0
22/12:00am 14.8 16.4 14.8 100 0.0 CALM 0 0 0 0 1018.6 1019.2 4.0
 
Date/Time
EST
Temp
°C
App
Temp
°C
Dew
Point
°C
Rel
Hum
%
Delta-T
°C
Wind Press
QNH
hPa
Press
MSL
hPa
Rain since
9am
mm
Dir  Spd
km/h
Gust
km/h
Spd
kts
Gust
kts
21/11:30pm 14.6 15.3 14.4 99 0.1 NNW 4 7 2 4 1018.8 - 4.0
21/11:00pm 14.8 16.0 14.8 100 0.0 S 2 6 1 3 1019.2 - 4.0
21/10:30pm 14.7 15.4 14.5 99 0.1 W 4 9 2 5 1019.5 - 4.0
21/10:00pm 15.5 17.2 15.3 99 0.1 CALM 0 0 0 0 1019.3 - 4.0
21/09:30pm 15.4 15.8 15.2 99 0.1 NNW 7 7 4 4 1019.1 - 4.0
21/09:00pm 15.4 15.9 15.1 98 0.2 NNW 6 9 3 5 1018.8 1019.4 4.0
21/08:30pm 15.7 16.3 15.2 97 0.3 N 6 6 3 3 1018.6 - 4.0
21/08:00pm 15.8 17.6 15.5 98 0.2 CALM 0 0 0 0 1018.6 - 4.0
21/07:30pm 15.9 16.3 15.4 97 0.3 WNW 7 9 4 5 1018.4 - 4.0
21/07:00pm 16.1 16.8 15.6 97 0.3 WSW 6 7 3 4 1018.2 - 3.8
21/06:30pm 16.3 17.5 15.8 97 0.3 WNW 4 7 2 4 1018.1 - 3.8
21/06:00pm 16.4 17.1 15.7 96 0.4 SW 6 9 3 5 1018.1 1018.7 3.8
21/05:30pm 16.5 18.4 15.8 96 0.4 CALM 0 0 0 0 1017.8 - 3.6
21/05:00pm 16.9 18.9 16.1 95 0.5 CALM 0 0 0 0 1017.9 - 3.6
21/04:30pm 17.3 17.1 15.6 90 1.0 NW 11 17 6 9 1017.7 - 3.4
21/04:00pm 18.2 17.4 15.0 81 1.9 NNW 13 26 7 14 1017.6 - 3.2
21/03:30pm 18.7 18.5 15.6 82 1.9 NNW 11 17 6 9 1017.6 - 3.2
21/03:00pm 19.1 18.5 15.7 80 2.1 WNW 13 26 7 14 1017.6 - 3.2
21/02:30pm 18.3 17.6 15.3 83 1.8 NNW 13 17 7 9 1017.5 - 3.2
21/02:00pm 18.2 17.3 15.9 86 1.4 NNW 15 19 8 10 1017.6 - 3.2
21/01:30pm 17.7 18.1 16.4 92 0.8 NNW 9 13 5 7 1017.9 - 3.2
21/01:00pm 17.8 17.3 16.0 89 1.1 NNW 13 17 7 9 1018.3 - 3.0
21/12:30pm 17.5 17.1 16.2 92 0.8 NNW 13 19 7 10 1018.7 - 3.0
21/12:00pm 17.0 16.5 15.8 93 0.7 NNW 13 20 7 11 1019.3 - 2.8
21/11:30am 16.8 17.1 16.0 95 0.5 NNW 9 15 5 8 1019.6 - 2.8
21/11:00am 16.9 16.9 16.2 96 0.4 N 11 15 6 8 1019.8 - 2.8
21/10:30am 16.3 16.6 16.0 98 0.2 N 9 11 5 6 1020.2 - 2.6
21/10:00am 16.2 16.5 15.9 98 0.2 NNW 9 15 5 8 1020.4 - 1.6
21/09:30am 16.1 15.9 15.6 97 0.3 N 11 15 6 8 1020.2 - 1.2
21/09:00am 15.6 16.2 15.4 99 0.1 N 6 9 3 5 1020.4 1021.0 11.2
21/08:30am 15.4 15.4 15.2 99 0.1 NNW 9 15 5 8 1020.0 - 10.6
21/08:00am 15.2 14.4 15.0 99 0.1 NNW 13 17 7 9 1019.8 - 10.0
21/07:30am 15.0 14.5 15.0 100 0.0 N 11 15 6 8 1019.5 - 9.4
21/07:00am 14.9 14.4 14.9 100 0.0 N 11 13 6 7 1019.4 - 9.0
21/06:30am 15.0 14.2 15.0 100 0.0 N 13 17 7 9 1019.2 - 8.8
21/06:00am 14.9 15.2 14.9 100 0.0 N 7 11 4 6 1019.1 1019.6 8.8
21/05:30am 14.9 14.8 14.9 100 0.0 N 9 11 5 6 1019.1 - 8.8
21/05:00am 15.0 14.9 15.0 100 0.0 N 9 11 5 6 1019.0 - 8.0
21/04:30am 15.0 14.5 15.0 100 0.0 N 11 13 6 7 1018.8 - 7.6
21/04:00am 15.1 14.7 15.1 100 0.0 N 11 15 6 8 1019.0 - 7.4
21/03:30am 15.1 14.7 15.1 100 0.0 N 11 17 6 9 1019.1 - 7.2
21/03:00am 15.3 16.2 15.1 99 0.1 N 4 7 2 4 1019.5 1020.1 7.0
21/02:30am 15.5 15.5 15.2 98 0.2 NNW 9 15 5 8 1019.7 - 6.0
21/02:00am 15.6 15.6 15.3 98 0.2 N 9 13 5 7 1020.0 - 5.8
21/01:30am 15.7 15.4 15.4 98 0.2 NNW 11 17 6 9 1020.1 - 4.8
21/01:00am 15.6 15.7 15.4 99 0.1 NNW 9 13 5 7 1020.4 - 2.4
21/12:30am 15.5 16.1 15.3 99 0.1 N 6 7 3 4 1020.3 - 1.6
21/12:00am 15.8 17.6 15.5 98 0.2 CALM 0 0 0 0 1020.6 1021.1 0.8
 
Date/Time
EST
Temp
°C
App
Temp
°C
Dew
Point
°C
Rel
Hum
%
Delta-T
°C
Wind Press
QNH
hPa
Press
MSL
hPa
Rain since
9am
mm
Dir  Spd
km/h
Gust
km/h
Spd
kts
Gust
kts
20/11:30pm 15.9 17.7 15.4 97 0.3 CALM 0 0 0 0 1020.8 - 0.8
20/11:00pm 15.9 17.7 15.4 97 0.3 CALM 0 0 0 0 1020.7 - 0.6
20/10:30pm 16.0 17.7 15.3 96 0.4 CALM 0 0 0 0 1020.8 - 0.6
20/10:00pm 16.3 17.7 15.3 94 0.6 W 2 7 1 4 1021.0 - 0.4
20/09:30pm 16.6 18.3 15.3 92 0.8 CALM 0 0 0 0 1021.0 - 0.2
20/09:00pm 17.1 17.9 14.7 86 1.4 NNW 4 7 2 4 1020.9 1021.5 0.0

Other Formats:

Comma delimited format used in spreadsheet applications
http://www.bom.gov.au/fwo/IDN60801/IDN60801.94541.axf

JavaScript Object Notation format (JSON) in row-major order
http://www.bom.gov.au/fwo/IDN60801/IDN60801.94541.json